Bulk Indonesia — 3FFO6 — position and weather

sailwx.info

Track history (hours):
 
Tides and Currents Weather Stations Pressure Air Temp Water Temp Dewpoint Dewpoint Depression Visibility Wind Speed Wind Dir Waves Ship Positions

Bulk Indonesia

Last reported at 2018-Jun-05 15:16 UTC. Time now 2018-Jun-22 20:31 UTC.
Position S 32°28' E 152°47'.
Warning: this ship's position is 17 days out of date.

Length 235 m; draft 13.9 m.

Type: Cargo ship. MMSI: 371990000.

Date/timePositionNaut miles runAvg speedWind from/ knotsBaromVisibWave heightAir tempDewpointWater temp
2018-Jun-05 15:16S 32°28' E 152°47'310.3
2018-Jun-05 15:00S 32°30' E 152°45'510.0
2018-Jun-05 14:30S 32°34' E 152°42'5 9.6
2018-Jun-05 14:00S 32°38' E 152°38'5 9.2
2018-Jun-05 13:30S 32°41' E 152°34'5 9.4
2018-Jun-05 13:00S 32°45' E 152°31'5 9.5
2018-Jun-05 12:30S 32°49' E 152°28'5 9.4
2018-Jun-05 12:00S 32°52' E 152°24'4 8.9
2018-Jun-05 11:30S 32°55' E 152°20'5 9.5
2018-Jun-05 11:00S 32°56' E 152°15'510.1
2018-Jun-05 10:30S 32°57' E 152°09'511.0
2018-Jun-05 10:00S 32°58' E 152°02'611.2
2018-Jun-05 09:30S 32°57' E 151°56'5 9.8
2018-Jun-05 09:00S 32°56' E 151°50'3 5.4
2018-Jun-05 08:30S 32°55' E 151°47'2 3.6
2018-Jun-05 08:00S 32°54' E 151°46'1 1.5
2018-Jun-05 07:30S 32°53' E 151°46'0 0.0
2018-Jun-05 06:59S 32°53' E 151°46'0 0.0
2018-Jun-05 06:29S 32°53' E 151°46'0 0.0
2018-Jun-05 05:59S 32°53' E 151°46'0 0.0
2018-Jun-05 05:02S 32°53' E 151°46'0 0.0
2018-Jun-05 04:50S 32°53' E 151°46'0 0.0
2018-Jun-05 04:26S 32°53' E 151°46'0 0.0
2018-Jun-05 03:56S 32°53' E 151°46'0 0.0
2018-Jun-05 03:26S 32°53' E 151°46'0 0.0
2018-Jun-05 02:59S 32°53' E 151°46'0 0.0
2018-Jun-05 02:29S 32°53' E 151°46'0 0.0
2018-Jun-05 01:59S 32°53' E 151°46'0 0.0
2018-Jun-05 01:29S 32°53' E 151°46'0 0.0
2018-Jun-05 00:59S 32°53' E 151°46'0 0.0
2018-Jun-05 00:29S 32°53' E 151°46'0 0.0
2018-Jun-04 23:59S 32°53' E 151°46'0 0.0
2018-Jun-04 23:29S 32°53' E 151°46'0 0.0
2018-Jun-04 22:59S 32°53' E 151°46'0 0.0
2018-Jun-04 22:29S 32°53' E 151°46'0 0.0
2018-Jun-04 21:59S 32°53' E 151°46'0 0.0
2018-Jun-04 21:29S 32°53' E 151°46'0 0.0
2018-Jun-04 20:59S 32°53' E 151°46'0 0.0
2018-Jun-04 20:29S 32°53' E 151°46'0 0.0
2018-Jun-04 19:59S 32°53' E 151°46'0 0.0
2018-Jun-04 19:29S 32°53' E 151°46'0 0.0
2018-Jun-04 18:59S 32°53' E 151°46'0 0.0
2018-Jun-04 18:29S 32°53' E 151°46'0 0.0
2018-Jun-04 17:59S 32°53' E 151°46'0 0.0
2018-Jun-04 17:29S 32°53' E 151°46'0 0.0
2018-Jun-04 16:59S 32°53' E 151°46'0 0.0
2018-Jun-04 16:29S 32°53' E 151°46'0 0.0
2018-Jun-04 15:59S 32°53' E 151°46'0 0.0
2018-Jun-04 15:29S 32°53' E 151°46'0 0.0
2018-Jun-04 14:59S 32°53' E 151°46'0 0.0
2018-Jun-04 14:29S 32°53' E 151°46'0 0.0
2018-Jun-04 13:59S 32°53' E 151°46'0 0.0
2018-Jun-04 13:29S 32°53' E 151°46'0 0.0
2018-Jun-04 12:59S 32°53' E 151°46'0 0.0
2018-Jun-04 12:29S 32°53' E 151°46'1 1.4
2018-Jun-04 12:01S 32°54' E 151°46'2 3.8
2018-Jun-04 11:31S 32°55' E 151°48'4 8.6
2018-Jun-04 11:00S 32°56' E 151°53'3 6.2
2018-Jun-04 10:31S 32°59' E 151°53'2 4.3
2018-Jun-04 10:01S 33°01' E 151°53'2 3.2
2018-Jun-04 09:30S 33°02' E 151°54'2 3.0
2018-Jun-04 09:00S 33°04' E 151°53'0 0.3
2018-Jun-04 08:30S 33°04' E 151°53'1 1.7
2018-Jun-04 07:59S 33°03' E 151°54'1 1.8
2018-Jun-04 07:26S 33°04' E 151°55'0 0.9
2018-Jun-04 07:00S 33°04' E 151°55'2 4.7
2018-Jun-04 06:30S 33°03' E 151°53'1 1.3
2018-Jun-04 06:01S 33°04' E 151°53'1 2.2
2018-Jun-04 05:28S 33°05' E 151°54'1 2.0
2018-Jun-04 04:58S 33°06' E 151°54'1 1.9
2018-Jun-04 04:28S 33°07' E 151°55'1 1.5
2018-Jun-04 03:58S 33°07' E 151°56'1 1.2
2018-Jun-04 03:30S 33°07' E 151°56'2 4.7
2018-Jun-04 03:00S 33°05' E 151°55'4 7.6
2018-Jun-04 02:30S 33°05' E 151°50'1 2.6
2018-Jun-04 01:58S 33°05' E 151°49'1 1.7
2018-Jun-04 01:19S 33°06' E 151°50'1 1.9
2018-Jun-04 00:58S 33°06' E 151°50'1 1.4
2018-Jun-04 00:07S 33°07' E 151°51'0 1.1
2018-Jun-03 23:58S 33°07' E 151°51'1 1.6
2018-Jun-03 23:31S 33°07' E 151°52'2 4.2
2018-Jun-03 23:01S 33°05' E 151°52'1 1.9
2018-Jun-03 22:29S 33°05' E 151°53'1 1.7
2018-Jun-03 22:01S 33°05' E 151°54'2 4.2
2018-Jun-03 21:30S 33°04' E 151°56'1 2.4
2018-Jun-03 21:00S 33°04' E 151°57'1 2.1
2018-Jun-03 20:30S 33°05' E 151°58'1 2.0
2018-Jun-03 20:00S 33°06' E 151°59'1 1.1
2018-Jun-03 19:30S 33°05' E 151°59'1 1.3
2018-Jun-03 19:00S 33°06' E 151°59'1 1.4
2018-Jun-03 18:30S 33°06' E 151°59'1 1.4
2018-Jun-03 17:59S 33°07' E 151°59'1 1.4
2018-Jun-03 17:30S 33°08' E 151°59'1 1.4
2018-Jun-03 16:55S 33°08' E 151°59'1 1.1
2018-Jun-03 16:28S 33°09' E 151°59'1 1.2
2018-Jun-03 15:59S 33°09' E 151°59'1 1.6
2018-Jun-03 15:30S 33°09' E 151°58'4 7.3
2018-Jun-03 15:00S 33°06' E 151°57'3 5.8
2018-Jun-03 14:30S 33°03' E 151°56'1 1.4
2018-Jun-03 13:59S 33°04' E 151°56'1 1.6
2018-Jun-03 13:30S 33°05' E 151°56'1 1.6
2018-Jun-03 12:59S 33°05' E 151°56'1 1.4
2018-Jun-03 12:28S 33°06' E 151°56'1 2.5
2018-Jun-03 12:00S 33°06' E 151°54'1 2.7
2018-Jun-03 11:30S 33°05' E 151°53'1 2.4
2018-Jun-03 10:58S 33°06' E 151°53'2 3.5
2018-Jun-03 10:30S 33°05' E 151°52'1 2.2
2018-Jun-03 10:00S 33°06' E 151°53'1 2.3
2018-Jun-03 09:30S 33°07' E 151°54'1 1.8
2018-Jun-03 09:00S 33°07' E 151°55'1 1.9
2018-Jun-03 08:30S 33°08' E 151°56'1 1.7
2018-Jun-03 07:59S 33°08' E 151°56'1 1.4
2018-Jun-03 07:24S 33°09' E 151°57'1 3.0
2018-Jun-03 07:00S 33°08' E 151°58'1 3.0
2018-Jun-03 06:30S 33°06' E 151°58'1 1.5
2018-Jun-03 06:00S 33°07' E 151°58'1 1.4
2018-Jun-03 05:30S 33°08' E 151°58'1 1.3
2018-Jun-03 05:00S 33°07' E 151°57'1 2.3
2018-Jun-03 04:30S 33°07' E 151°56'1 2.1
2018-Jun-03 04:00S 33°06' E 151°55'1 2.1
2018-Jun-03 03:30S 33°05' E 151°54'1 1.9
2018-Jun-03 03:00S 33°06' E 151°54'1 2.0
2018-Jun-03 02:30S 33°07' E 151°53'1 1.9
2018-Jun-03 02:00S 33°08' E 151°53'1 2.0
2018-Jun-03 01:30S 33°09' E 151°53'1 1.7
2018-Jun-03 01:00S 33°09' E 151°52'2 3.4
2018-Jun-03 00:30S 33°09' E 151°50'1 2.0
2018-Jun-03 00:00S 33°09' E 151°50'1 2.7
2018-Jun-02 23:30S 33°11' E 151°51'2 2.6
2018-Jun-02 22:47S 33°12' E 151°52'0 1.3
2018-Jun-02 22:30S 33°12' E 151°53'1 1.3
2018-Jun-02 21:58S 33°13' E 151°53'1 2.0
2018-Jun-02 21:29S 33°13' E 151°54'1 1.6
2018-Jun-02 21:00S 33°13' E 151°55'1 2.2
2018-Jun-02 20:30S 33°12' E 151°55'1 2.2
2018-Jun-02 20:00S 33°11' E 151°56'1 2.4
2018-Jun-02 19:30S 33°10' E 151°56'1 2.2
2018-Jun-02 19:00S 33°09' E 151°56'1 2.3
2018-Jun-02 18:30S 33°08' E 151°57'1 1.6
2018-Jun-02 18:00S 33°08' E 151°58'3 5.2
2018-Jun-02 17:30S 33°10' E 151°58'3 6.0
2018-Jun-02 17:00S 33°13' E 151°58'2 4.9
2018-Jun-02 16:30S 33°16' E 151°58'2 4.7
2018-Jun-02 16:00S 33°18' E 151°58'16 1.8
2018-Jun-02 07:10S 33°33' E 152°02'1 4.4
2018-Jun-02 07:00S 33°33' E 152°02'15 1.8
2018-Jun-01 22:35S 33°18' E 151°58'0 1.3
2018-Jun-01 22:18S 33°18' E 151°57'0 0.7
2018-Jun-01 22:00S 33°18' E 151°58'1 1.2
2018-Jun-01 21:30S 33°17' E 151°57'1 2.0
2018-Jun-01 21:00S 33°16' E 151°58'1 2.2
2018-Jun-01 20:25S 33°15' E 151°57'1 1.2
2018-Jun-01 19:57S 33°14' E 151°57'1 2.3
2018-Jun-01 19:30S 33°13' E 151°58'1 1.6
2018-Jun-01 19:00S 33°14' E 151°58'3 5.9
2018-Jun-01 18:30S 33°17' E 151°57'4 6.1
2018-Jun-01 17:54S 33°21' E 151°56'0 0.0
2018-Jun-01 01:52S 33°21' E 151°57'0 1.3
2018-Jun-01 01:30S 33°20' E 151°57'1 2.1
2018-Jun-01 01:00S 33°19' E 151°56'1 1.9
2018-Jun-01 00:29S 33°18' E 151°56'1 1.1
2018-May-31 23:50S 33°18' E 151°56'1 1.8
2018-May-31 23:25S 33°17' E 151°55'1 3.3
2018-May-31 23:00S 33°16' E 151°55'1 2.2
2018-May-31 22:30S 33°15' E 151°56'1 2.5
2018-May-31 22:00S 33°14' E 151°55'1 1.8
2018-May-31 21:30S 33°13' E 151°55'2 3.2
2018-May-31 21:00S 33°11' E 151°55'1 2.3
2018-May-31 20:31S 33°10' E 151°55'1 1.5
2018-May-31 20:00S 33°10' E 151°55'2 3.6
2018-May-31 19:31S 33°08' E 151°56'2 3.2
2018-May-31 19:00S 33°06' E 151°57'0 0.9
2018-May-31 18:30S 33°06' E 151°57'2 3.0
2018-May-31 18:00S 33°05' E 151°55'1 2.6
2018-May-31 17:30S 33°05' E 151°54'1 2.1
2018-May-31 17:00S 33°04' E 151°54'1 2.3
2018-May-31 16:30S 33°02' E 151°55'1 2.0
2018-May-31 16:00S 33°02' E 151°56'2 3.2
2018-May-31 15:30S 33°03' E 151°57'0 0.9
2018-May-31 15:00S 33°03' E 151°57'1 1.4
2018-May-31 14:30S 33°02' E 151°57'2 4.2
2018-May-31 14:00S 33°00' E 151°58'2 4.7
2018-May-31 13:30S 32°58' E 151°59'2 4.0
2018-May-31 13:00S 32°57' E 152°01'4 7.2
2018-May-31 12:30S 32°57' E 152°05'2 4.5
2018-May-31 12:00S 32°56' E 152°08'2 4.4
2018-May-31 11:30S 32°55' E 152°10'2 4.4
2018-May-31 11:00S 32°55' E 152°13'2 4.5
2018-May-31 10:30S 32°55' E 152°16'2 4.1
2018-May-31 10:00S 32°54' E 152°18'2 3.7
2018-May-31 09:30S 32°53' E 152°20'2 4.1
2018-May-31 09:00S 32°52' E 152°22'2 4.2
2018-May-31 08:30S 32°50' E 152°23'2 4.0
2018-May-31 08:00S 32°49' E 152°25'2 4.1
2018-May-31 07:30S 32°48' E 152°27'3 5.3
2018-May-31 07:00S 32°46' E 152°29'3 5.2
2018-May-31 06:30S 32°44' E 152°32'3 6.1
2018-May-31 06:00S 32°42' E 152°34'3 6.4
2018-May-31 05:30S 32°39' E 152°36'4 7.4
2018-May-31 05:00S 32°36' E 152°39'4 7.8
2018-May-31 04:30S 32°33' E 152°42'16 9.2
2018-May-31 02:48S 32°21' E 152°53'  
Track history (hours):
 
Tides and Currents Weather Stations Pressure Air Temp Water Temp Dewpoint Dewpoint Depression Visibility Wind Speed Wind Dir Waves Ship Positions

Bulk Indonesia

Last reported at 2018-Jun-05 15:16 UTC. Time now 2018-Jun-22 20:31 UTC.
Position S 32°28' E 152°47'.
Warning: this ship's position is 17 days out of date.

Length 235 m; draft 13.9 m.

Type: Cargo ship. MMSI: 371990000.

Date/timePositionNaut miles runAvg speedWind from/ knotsBaromVisibWave heightAir tempDewpointWater temp
2018-Jun-05 15:16S 32°28' E 152°47'310.3
2018-Jun-05 15:00S 32°30' E 152°45'510.0
2018-Jun-05 14:30S 32°34' E 152°42'5 9.6
2018-Jun-05 14:00S 32°38' E 152°38'5 9.2
2018-Jun-05 13:30S 32°41' E 152°34'5 9.4
2018-Jun-05 13:00S 32°45' E 152°31'5 9.5
2018-Jun-05 12:30S 32°49' E 152°28'5 9.4
2018-Jun-05 12:00S 32°52' E 152°24'4 8.9
2018-Jun-05 11:30S 32°55' E 152°20'5 9.5
2018-Jun-05 11:00S 32°56' E 152°15'510.1
2018-Jun-05 10:30S 32°57' E 152°09'511.0
2018-Jun-05 10:00S 32°58' E 152°02'611.2
2018-Jun-05 09:30S 32°57' E 151°56'5 9.8
2018-Jun-05 09:00S 32°56' E 151°50'3 5.4
2018-Jun-05 08:30S 32°55' E 151°47'2 3.6
2018-Jun-05 08:00S 32°54' E 151°46'1 1.5
2018-Jun-05 07:30S 32°53' E 151°46'0 0.0
2018-Jun-05 06:59S 32°53' E 151°46'0 0.0
2018-Jun-05 06:29S 32°53' E 151°46'0 0.0
2018-Jun-05 05:59S 32°53' E 151°46'0 0.0
2018-Jun-05 05:02S 32°53' E 151°46'0 0.0
2018-Jun-05 04:50S 32°53' E 151°46'0 0.0
2018-Jun-05 04:26S 32°53' E 151°46'0 0.0
2018-Jun-05 03:56S 32°53' E 151°46'0 0.0
2018-Jun-05 03:26S 32°53' E 151°46'0 0.0
2018-Jun-05 02:59S 32°53' E 151°46'0 0.0
2018-Jun-05 02:29S 32°53' E 151°46'0 0.0
2018-Jun-05 01:59S 32°53' E 151°46'0 0.0
2018-Jun-05 01:29S 32°53' E 151°46'0 0.0
2018-Jun-05 00:59S 32°53' E 151°46'0 0.0
2018-Jun-05 00:29S 32°53' E 151°46'0 0.0
2018-Jun-04 23:59S 32°53' E 151°46'0 0.0
2018-Jun-04 23:29S 32°53' E 151°46'0 0.0
2018-Jun-04 22:59S 32°53' E 151°46'0 0.0
2018-Jun-04 22:29S 32°53' E 151°46'0 0.0
2018-Jun-04 21:59S 32°53' E 151°46'0 0.0
2018-Jun-04 21:29S 32°53' E 151°46'0 0.0
2018-Jun-04 20:59S 32°53' E 151°46'0 0.0
2018-Jun-04 20:29S 32°53' E 151°46'0 0.0
2018-Jun-04 19:59S 32°53' E 151°46'0 0.0
2018-Jun-04 19:29S 32°53' E 151°46'0 0.0
2018-Jun-04 18:59S 32°53' E 151°46'0 0.0
2018-Jun-04 18:29S 32°53' E 151°46'0 0.0
2018-Jun-04 17:59S 32°53' E 151°46'0 0.0
2018-Jun-04 17:29S 32°53' E 151°46'0 0.0
2018-Jun-04 16:59S 32°53' E 151°46'0 0.0
2018-Jun-04 16:29S 32°53' E 151°46'0 0.0
2018-Jun-04 15:59S 32°53' E 151°46'0 0.0
2018-Jun-04 15:29S 32°53' E 151°46'0 0.0
2018-Jun-04 14:59S 32°53' E 151°46'0 0.0
2018-Jun-04 14:29S 32°53' E 151°46'0 0.0
2018-Jun-04 13:59S 32°53' E 151°46'0 0.0
2018-Jun-04 13:29S 32°53' E 151°46'0 0.0
2018-Jun-04 12:59S 32°53' E 151°46'0 0.0
2018-Jun-04 12:29S 32°53' E 151°46'1 1.4
2018-Jun-04 12:01S 32°54' E 151°46'2 3.8
2018-Jun-04 11:31S 32°55' E 151°48'4 8.6
2018-Jun-04 11:00S 32°56' E 151°53'3 6.2
2018-Jun-04 10:31S 32°59' E 151°53'2 4.3
2018-Jun-04 10:01S 33°01' E 151°53'2 3.2
2018-Jun-04 09:30S 33°02' E 151°54'2 3.0
2018-Jun-04 09:00S 33°04' E 151°53'0 0.3
2018-Jun-04 08:30S 33°04' E 151°53'1 1.7
2018-Jun-04 07:59S 33°03' E 151°54'1 1.8
2018-Jun-04 07:26S 33°04' E 151°55'0 0.9
2018-Jun-04 07:00S 33°04' E 151°55'2 4.7
2018-Jun-04 06:30S 33°03' E 151°53'1 1.3
2018-Jun-04 06:01S 33°04' E 151°53'1 2.2
2018-Jun-04 05:28S 33°05' E 151°54'1 2.0
2018-Jun-04 04:58S 33°06' E 151°54'1 1.9
2018-Jun-04 04:28S 33°07' E 151°55'1 1.5
2018-Jun-04 03:58S 33°07' E 151°56'1 1.2
2018-Jun-04 03:30S 33°07' E 151°56'2 4.7
2018-Jun-04 03:00S 33°05' E 151°55'4 7.6
2018-Jun-04 02:30S 33°05' E 151°50'1 2.6
2018-Jun-04 01:58S 33°05' E 151°49'1 1.7
2018-Jun-04 01:19S 33°06' E 151°50'1 1.9
2018-Jun-04 00:58S 33°06' E 151°50'1 1.4
2018-Jun-04 00:07S 33°07' E 151°51'0 1.1
2018-Jun-03 23:58S 33°07' E 151°51'1 1.6
2018-Jun-03 23:31S 33°07' E 151°52'2 4.2
2018-Jun-03 23:01S 33°05' E 151°52'1 1.9
2018-Jun-03 22:29S 33°05' E 151°53'1 1.7
2018-Jun-03 22:01S 33°05' E 151°54'2 4.2
2018-Jun-03 21:30S 33°04' E 151°56'1 2.4
2018-Jun-03 21:00S 33°04' E 151°57'1 2.1
2018-Jun-03 20:30S 33°05' E 151°58'1 2.0
2018-Jun-03 20:00S 33°06' E 151°59'1 1.1
2018-Jun-03 19:30S 33°05' E 151°59'1 1.3
2018-Jun-03 19:00S 33°06' E 151°59'1 1.4
2018-Jun-03 18:30S 33°06' E 151°59'1 1.4
2018-Jun-03 17:59S 33°07' E 151°59'1 1.4
2018-Jun-03 17:30S 33°08' E 151°59'1 1.4
2018-Jun-03 16:55S 33°08' E 151°59'1 1.1
2018-Jun-03 16:28S 33°09' E 151°59'1 1.2
2018-Jun-03 15:59S 33°09' E 151°59'1 1.6
2018-Jun-03 15:30S 33°09' E 151°58'4 7.3
2018-Jun-03 15:00S 33°06' E 151°57'3 5.8
2018-Jun-03 14:30S 33°03' E 151°56'1 1.4
2018-Jun-03 13:59S 33°04' E 151°56'1 1.6
2018-Jun-03 13:30S 33°05' E 151°56'1 1.6
2018-Jun-03 12:59S 33°05' E 151°56'1 1.4
2018-Jun-03 12:28S 33°06' E 151°56'1 2.5
2018-Jun-03 12:00S 33°06' E 151°54'1 2.7
2018-Jun-03 11:30S 33°05' E 151°53'1 2.4
2018-Jun-03 10:58S 33°06' E 151°53'2 3.5
2018-Jun-03 10:30S 33°05' E 151°52'1 2.2
2018-Jun-03 10:00S 33°06' E 151°53'1 2.3
2018-Jun-03 09:30S 33°07' E 151°54'1 1.8
2018-Jun-03 09:00S 33°07' E 151°55'1 1.9
2018-Jun-03 08:30S 33°08' E 151°56'1 1.7
2018-Jun-03 07:59S 33°08' E 151°56'1 1.4
2018-Jun-03 07:24S 33°09' E 151°57'1 3.0
2018-Jun-03 07:00S 33°08' E 151°58'1 3.0
2018-Jun-03 06:30S 33°06' E 151°58'1 1.5
2018-Jun-03 06:00S 33°07' E 151°58'1 1.4
2018-Jun-03 05:30S 33°08' E 151°58'1 1.3
2018-Jun-03 05:00S 33°07' E 151°57'1 2.3
2018-Jun-03 04:30S 33°07' E 151°56'1 2.1
2018-Jun-03 04:00S 33°06' E 151°55'1 2.1
2018-Jun-03 03:30S 33°05' E 151°54'1 1.9
2018-Jun-03 03:00S 33°06' E 151°54'1 2.0
2018-Jun-03 02:30S 33°07' E 151°53'1 1.9
2018-Jun-03 02:00S 33°08' E 151°53'1 2.0
2018-Jun-03 01:30S 33°09' E 151°53'1 1.7
2018-Jun-03 01:00S 33°09' E 151°52'2 3.4
2018-Jun-03 00:30S 33°09' E 151°50'1 2.0
2018-Jun-03 00:00S 33°09' E 151°50'1 2.7
2018-Jun-02 23:30S 33°11' E 151°51'2 2.6
2018-Jun-02 22:47S 33°12' E 151°52'0 1.3
2018-Jun-02 22:30S 33°12' E 151°53'1 1.3
2018-Jun-02 21:58S 33°13' E 151°53'1 2.0
2018-Jun-02 21:29S 33°13' E 151°54'1 1.6
2018-Jun-02 21:00S 33°13' E 151°55'1 2.2
2018-Jun-02 20:30S 33°12' E 151°55'1 2.2
2018-Jun-02 20:00S 33°11' E 151°56'1 2.4
2018-Jun-02 19:30S 33°10' E 151°56'1 2.2
2018-Jun-02 19:00S 33°09' E 151°56'1 2.3
2018-Jun-02 18:30S 33°08' E 151°57'1 1.6
2018-Jun-02 18:00S 33°08' E 151°58'3 5.2
2018-Jun-02 17:30S 33°10' E 151°58'3 6.0
2018-Jun-02 17:00S 33°13' E 151°58'2 4.9
2018-Jun-02 16:30S 33°16' E 151°58'2 4.7
2018-Jun-02 16:00S 33°18' E 151°58'16 1.8
2018-Jun-02 07:10S 33°33' E 152°02'1 4.4
2018-Jun-02 07:00S 33°33' E 152°02'15 1.8
2018-Jun-01 22:35S 33°18' E 151°58'0 1.3
2018-Jun-01 22:18S 33°18' E 151°57'0 0.7
2018-Jun-01 22:00S 33°18' E 151°58'1 1.2
2018-Jun-01 21:30S 33°17' E 151°57'1 2.0
2018-Jun-01 21:00S 33°16' E 151°58'1 2.2
2018-Jun-01 20:25S 33°15' E 151°57'1 1.2
2018-Jun-01 19:57S 33°14' E 151°57'1 2.3
2018-Jun-01 19:30S 33°13' E 151°58'1 1.6
2018-Jun-01 19:00S 33°14' E 151°58'3 5.9
2018-Jun-01 18:30S 33°17' E 151°57'4 6.1
2018-Jun-01 17:54S 33°21' E 151°56'0 0.0
2018-Jun-01 01:52S 33°21' E 151°57'0 1.3
2018-Jun-01 01:30S 33°20' E 151°57'1 2.1
2018-Jun-01 01:00S 33°19' E 151°56'1 1.9
2018-Jun-01 00:29S 33°18' E 151°56'1 1.1
2018-May-31 23:50S 33°18' E 151°56'1 1.8
2018-May-31 23:25S 33°17' E 151°55'1 3.3
2018-May-31 23:00S 33°16' E 151°55'1 2.2
2018-May-31 22:30S 33°15' E 151°56'1 2.5
2018-May-31 22:00S 33°14' E 151°55'1 1.8
2018-May-31 21:30S 33°13' E 151°55'2 3.2
2018-May-31 21:00S 33°11' E 151°55'1 2.3
2018-May-31 20:31S 33°10' E 151°55'1 1.5
2018-May-31 20:00S 33°10' E 151°55'2 3.6
2018-May-31 19:31S 33°08' E 151°56'2 3.2
2018-May-31 19:00S 33°06' E 151°57'0 0.9
2018-May-31 18:30S 33°06' E 151°57'2 3.0
2018-May-31 18:00S 33°05' E 151°55'1 2.6
2018-May-31 17:30S 33°05' E 151°54'1 2.1
2018-May-31 17:00S 33°04' E 151°54'1 2.3
2018-May-31 16:30S 33°02' E 151°55'1 2.0
2018-May-31 16:00S 33°02' E 151°56'2 3.2
2018-May-31 15:30S 33°03' E 151°57'0 0.9
2018-May-31 15:00S 33°03' E 151°57'1 1.4
2018-May-31 14:30S 33°02' E 151°57'2 4.2
2018-May-31 14:00S 33°00' E 151°58'2 4.7
2018-May-31 13:30S 32°58' E 151°59'2 4.0
2018-May-31 13:00S 32°57' E 152°01'4 7.2
2018-May-31 12:30S 32°57' E 152°05'2 4.5
2018-May-31 12:00S 32°56' E 152°08'2 4.4
2018-May-31 11:30S 32°55' E 152°10'2 4.4
2018-May-31 11:00S 32°55' E 152°13'2 4.5
2018-May-31 10:30S 32°55' E 152°16'2 4.1
2018-May-31 10:00S 32°54' E 152°18'2 3.7
2018-May-31 09:30S 32°53' E 152°20'2 4.1
2018-May-31 09:00S 32°52' E 152°22'2 4.2
2018-May-31 08:30S 32°50' E 152°23'2 4.0
2018-May-31 08:00S 32°49' E 152°25'2 4.1
2018-May-31 07:30S 32°48' E 152°27'3 5.3
2018-May-31 07:00S 32°46' E 152°29'3 5.2
2018-May-31 06:30S 32°44' E 152°32'3 6.1
2018-May-31 06:00S 32°42' E 152°34'3 6.4
2018-May-31 05:30S 32°39' E 152°36'4 7.4
2018-May-31 05:00S 32°36' E 152°39'4 7.8
2018-May-31 04:30S 32°33' E 152°42'16 9.2
2018-May-31 02:48S 32°21' E 152°53'  

Dump ship's entire track history